Time;durP1;ratioP1;P1;durP2;ratioP2;P2;SDS_P1;SDS_P2;PMS_P1;PMS_P2;Temp;Humidity;BMP_temperature;BMP_pressure;BME280_temperature;BME280_humidity;BME280_pressure;Samples;Min_cycle;Max_cycle;Signal;HPM_P1;HPM_P2
2024/02/13 00:00:11;;;;;;;6.30;3.43;;;5.20;99.90;;;;;;5052793;28;20399;-85
2024/02/13 00:02:38;;;;;;;4.47;3.27;;;5.20;99.90;;;;;;5044648;28;20178;-86
2024/02/13 00:05:08;;;;;;;4.13;2.93;;;5.20;99.90;;;;;;5052911;28;20197;-86
2024/02/13 00:07:36;;;;;;;4.67;3.10;;;5.10;99.90;;;;;;5052828;28;20192;-86
2024/02/13 00:10:02;;;;;;;6.90;3.20;;;5.10;99.90;;;;;;5036429;28;20214;-86
2024/02/13 00:12:28;;;;;;;4.07;3.30;;;5.10;99.90;;;;;;5044958;28;20197;-86
2024/02/13 00:14:55;;;;;;;4.33;3.43;;;5.10;99.90;;;;;;5046038;28;20181;-88
2024/02/13 00:17:25;;;;;;;3.80;3.10;;;5.10;99.90;;;;;;5032474;28;20597;-86
2024/02/13 00:19:52;;;;;;;4.53;3.70;;;5.10;99.90;;;;;;5049465;28;20263;-86
2024/02/13 00:22:18;;;;;;;6.57;3.70;;;5.10;99.90;;;;;;5049545;28;20508;-87
2024/02/13 00:24:44;;;;;;;6.37;3.90;;;5.00;99.90;;;;;;5048464;28;20186;-86
2024/02/13 00:27:11;;;;;;;7.43;4.17;;;5.00;99.90;;;;;;5053743;28;20208;-85
2024/02/13 00:29:37;;;;;;;4.20;3.80;;;5.10;99.90;;;;;;5051952;28;20182;-88
2024/02/13 00:32:04;;;;;;;5.03;3.87;;;5.00;99.90;;;;;;5052484;28;20208;-85
2024/02/13 00:34:31;;;;;;;7.00;4.20;;;5.10;99.90;;;;;;5052531;28;20190;-85
2024/02/13 00:37:00;;;;;;;5.50;4.00;;;5.00;99.90;;;;;;5053014;28;20193;-87
2024/02/13 00:39:27;;;;;;;6.30;4.17;;;5.00;99.90;;;;;;5054011;28;20209;-87
2024/02/13 00:41:55;;;;;;;5.60;3.80;;;5.00;99.90;;;;;;5052591;28;20580;-88
2024/02/13 00:44:27;;;;;;;6.00;4.03;;;4.90;99.90;;;;;;5052897;28;20197;-85
2024/02/13 00:46:53;;;;;;;8.00;4.10;;;4.90;99.90;;;;;;5052589;28;20189;-90
2024/02/13 00:49:22;;;;;;;7.77;4.33;;;4.90;99.90;;;;;;5052809;28;20186;-85
2024/02/13 00:51:48;;;;;;;10.40;4.27;;;4.80;99.90;;;;;;5036193;28;20578;-89
2024/02/13 00:54:14;;;;;;;5.83;3.80;;;4.80;99.90;;;;;;5044392;28;20193;-86
2024/02/13 00:56:43;;;;;;;6.33;4.07;;;4.70;99.90;;;;;;5052280;28;20241;-85
2024/02/13 00:59:09;;;;;;;6.30;4.13;;;4.70;99.90;;;;;;5052376;28;20198;-86
2024/02/13 01:01:36;;;;;;;5.10;3.80;;;4.70;99.90;;;;;;5047946;28;20179;-88
2024/02/13 01:04:06;;;;;;;7.70;3.63;;;4.70;99.90;;;;;;5051091;28;20636;-88
2024/02/13 01:06:35;;;;;;;7.70;4.13;;;4.70;99.90;;;;;;5053399;28;20557;-88
2024/02/13 01:09:05;;;;;;;5.53;3.63;;;4.70;99.90;;;;;;5052633;28;20193;-87
2024/02/13 01:11:35;;;;;;;6.30;3.80;;;4.60;99.90;;;;;;5052653;28;20232;-87
2024/02/13 01:14:02;;;;;;;4.57;4.00;;;4.70;99.90;;;;;;5052621;28;20219;-87
2024/02/13 01:16:29;;;;;;;5.87;3.53;;;4.60;99.90;;;;;;5052873;28;20186;-87
2024/02/13 01:18:56;;;;;;;5.83;3.50;;;4.60;99.90;;;;;;5052830;28;20277;-86
2024/02/13 01:21:22;;;;;;;5.27;3.50;;;4.60;99.90;;;;;;5052726;28;20193;-89
2024/02/13 01:23:49;;;;;;;6.40;3.80;;;4.60;99.90;;;;;;5052435;28;20205;-87
2024/02/13 01:26:18;;;;;;;6.37;3.73;;;4.50;99.90;;;;;;5052092;28;20236;-87
2024/02/13 01:28:47;;;;;;;6.47;4.50;;;4.50;99.90;;;;;;5052864;28;20273;-88
2024/02/13 01:31:13;;;;;;;9.13;4.17;;;4.60;99.90;;;;;;5038162;28;20187;-87
2024/02/13 01:33:40;;;;;;;7.50;4.30;;;4.60;99.90;;;;;;5038982;28;20205;-87
2024/02/13 01:36:07;;;;;;;8.13;4.77;;;4.60;99.90;;;;;;5052236;28;20213;-86
2024/02/13 01:38:35;;;;;;;7.17;4.77;;;4.70;99.90;;;;;;5052432;28;20249;-88
2024/02/13 01:41:02;;;;;;;15.10;5.53;;;4.80;99.90;;;;;;5053786;28;20660;-85
2024/02/13 01:43:31;;;;;;;8.77;5.33;;;4.80;99.90;;;;;;5055792;28;20182;-88
2024/02/13 01:45:58;;;;;;;7.63;5.17;;;4.90;99.90;;;;;;5056950;28;20178;-87
2024/02/13 01:48:25;;;;;;;10.47;5.87;;;4.90;99.90;;;;;;5056936;28;20182;-87
2024/02/13 01:50:53;;;;;;;12.20;5.77;;;4.90;99.90;;;;;;5055719;28;20623;-84
2024/02/13 01:53:24;;;;;;;14.57;5.80;;;5.00;99.90;;;;;;5055979;28;20181;-86
2024/02/13 01:55:51;;;;;;;13.13;6.60;;;5.00;99.90;;;;;;5054294;28;20257;-86
2024/02/13 01:58:22;;;;;;;9.27;6.27;;;5.00;99.90;;;;;;5039664;28;20188;-88
2024/02/13 02:00:59;;;;;;;13.13;6.87;;;5.00;99.90;;;;;;5055904;28;20213;-88
2024/02/13 02:03:30;;;;;;;12.97;6.60;;;5.00;99.90;;;;;;5049526;28;20560;-87
2024/02/13 02:06:01;;;;;;;14.13;8.27;;;5.00;99.90;;;;;;5055501;28;20186;-87
2024/02/13 02:08:27;;;;;;;13.00;7.20;;;5.00;99.90;;;;;;5055319;28;20186;-86
2024/02/13 02:10:57;;;;;;;10.73;7.50;;;5.10;99.90;;;;;;5055951;28;20616;-87
2024/02/13 02:13:27;;;;;;;15.90;7.97;;;5.10;99.90;;;;;;5055418;28;20182;-88
2024/02/13 02:15:54;;;;;;;11.63;8.00;;;5.10;99.90;;;;;;5055213;28;20194;-88
2024/02/13 02:18:21;;;;;;;13.27;7.90;;;5.10;99.90;;;;;;5055256;28;20272;-87
2024/02/13 02:20:47;;;;;;;16.23;8.27;;;5.10;99.90;;;;;;5054953;28;20300;-86
2024/02/13 02:23:13;;;;;;;15.10;8.87;;;5.10;99.90;;;;;;5053587;28;20186;-89
2024/02/13 02:25:39;;;;;;;12.23;8.23;;;5.10;99.90;;;;;;5045756;28;20181;-86
2024/02/13 02:28:05;;;;;;;16.13;8.67;;;5.20;99.90;;;;;;5047998;28;20181;-87
2024/02/13 02:30:31;;;;;;;15.07;8.67;;;5.20;99.90;;;;;;5056059;28;20689;-87
2024/02/13 02:32:57;;;;;;;13.90;8.37;;;5.20;99.90;;;;;;5048747;28;20272;-87
2024/02/13 02:35:22;;;;;;;12.87;8.93;;;5.20;99.90;;;;;;5054943;28;20200;-89
2024/02/13 02:37:50;;;;;;;15.57;9.80;;;5.20;99.90;;;;;;5054823;28;20239;-88
2024/02/13 02:40:18;;;;;;;12.73;9.33;;;5.20;99.90;;;;;;5054535;28;20241;-86
2024/02/13 02:42:49;;;;;;;17.13;10.07;;;5.20;99.90;;;;;;5055001;28;20221;-87
2024/02/13 02:45:15;;;;;;;19.67;9.90;;;5.20;99.90;;;;;;5055954;28;20239;-87
2024/02/13 02:47:42;;;;;;;17.03;10.10;;;5.20;99.90;;;;;;5054491;28;20193;-86
2024/02/13 02:50:10;;;;;;;19.70;10.60;;;5.20;99.90;;;;;;5054373;28;20577;-91
2024/02/13 02:52:37;;;;;;;13.20;9.40;;;5.20;99.90;;;;;;5046826;28;20186;-87
2024/02/13 02:55:06;;;;;;;17.37;10.03;;;5.20;99.90;;;;;;5054163;28;20233;-90
2024/02/13 02:57:35;;;;;;;13.40;9.47;;;5.10;99.90;;;;;;5051265;28;20182;-86
2024/02/13 03:00:03;;;;;;;17.17;10.30;;;5.10;99.90;;;;;;5035670;28;20661;-86
2024/02/13 03:02:29;;;;;;;17.83;10.43;;;5.10;99.90;;;;;;5054163;28;20181;-87
2024/02/13 03:04:55;;;;;;;22.70;10.30;;;5.10;99.90;;;;;;5054130;28;20189;-87
2024/02/13 03:07:21;;;;;;;15.17;11.10;;;5.10;99.90;;;;;;5054032;28;20205;-87
2024/02/13 03:09:48;;;;;;;15.37;10.63;;;5.10;99.90;;;;;;5041363;28;20201;-89
2024/02/13 03:12:14;;;;;;;16.97;10.50;;;5.10;99.90;;;;;;5053391;28;20185;-87
2024/02/13 03:14:40;;;;;;;17.67;10.77;;;5.00;99.90;;;;;;5053599;28;20251;-86
2024/02/13 03:17:06;;;;;;;17.13;9.90;;;5.00;99.90;;;;;;5053685;28;20189;-86
2024/02/13 03:19:35;;;;;;;17.07;9.87;;;4.90;99.90;;;;;;5048094;28;20218;-87
2024/02/13 03:22:01;;;;;;;15.30;9.87;;;5.00;99.90;;;;;;5043382;28;20218;-87
2024/02/13 03:24:27;;;;;;;13.13;8.83;;;4.90;99.90;;;;;;5055264;28;20248;-86
2024/02/13 03:26:53;;;;;;;18.20;9.17;;;4.90;99.90;;;;;;5053250;28;20193;-86
2024/02/13 03:29:19;;;;;;;15.73;9.27;;;4.90;99.90;;;;;;5053577;28;20505;-85
2024/02/13 03:31:45;;;;;;;13.60;9.13;;;4.80;99.90;;;;;;5053964;28;20193;-87
2024/02/13 03:34:11;;;;;;;13.40;8.80;;;4.80;99.90;;;;;;5034428;28;20189;-89
2024/02/13 03:36:37;;;;;;;12.67;8.63;;;4.80;99.90;;;;;;5040183;28;20194;-88
2024/02/13 03:39:06;;;;;;;14.97;8.67;;;4.80;99.90;;;;;;5036969;28;20282;-90
2024/02/13 03:41:32;;;;;;;12.73;8.27;;;4.90;99.90;;;;;;5053146;28;20572;-87
2024/02/13 03:43:57;;;;;;;12.57;8.50;;;4.90;99.90;;;;;;5053198;28;20193;-89
2024/02/13 03:46:23;;;;;;;12.87;8.40;;;4.90;99.90;;;;;;5053284;28;20245;-86
2024/02/13 03:48:49;;;;;;;11.17;8.33;;;4.90;99.90;;;;;;5053223;28;20296;-88
2024/02/13 03:51:16;;;;;;;14.57;7.80;;;4.90;99.90;;;;;;5053369;28;20192;-87
2024/02/13 03:53:41;;;;;;;16.20;7.87;;;4.90;99.90;;;;;;5046540;28;20204;-87
2024/02/13 03:56:07;;;;;;;13.57;7.93;;;5.00;99.90;;;;;;5051178;28;20332;-86
2024/02/13 03:58:33;;;;;;;18.50;9.27;;;5.00;99.90;;;;;;5054278;28;20224;-91
2024/02/13 04:00:59;;;;;;;18.57;7.60;;;5.00;99.90;;;;;;5052987;28;20214;-86
2024/02/13 04:03:26;;;;;;;11.77;7.17;;;5.00;99.90;;;;;;5040158;28;20182;-86
2024/02/13 04:05:53;;;;;;;12.87;7.27;;;5.00;99.90;;;;;;5048977;28;20216;-86
2024/02/13 04:08:19;;;;;;;13.60;7.10;;;5.00;99.90;;;;;;5053063;28;20266;-86
2024/02/13 04:10:47;;;;;;;12.17;7.00;;;5.00;99.90;;;;;;5052643;28;20235;-87
2024/02/13 04:13:13;;;;;;;12.63;6.80;;;5.00;99.90;;;;;;5048360;28;20233;-87
2024/02/13 04:15:39;;;;;;;16.73;7.33;;;5.00;99.90;;;;;;5044114;28;20651;-87
2024/02/13 04:18:05;;;;;;;16.57;7.60;;;5.00;99.90;;;;;;5052752;28;20192;-87
2024/02/13 04:20:30;;;;;;;14.87;7.10;;;5.00;99.90;;;;;;5053028;28;20274;-86
2024/02/13 04:22:56;;;;;;;12.87;7.27;;;5.00;99.90;;;;;;5044659;28;20331;-86
2024/02/13 04:25:22;;;;;;;13.10;7.47;;;4.90;99.90;;;;;;5052794;28;20340;-86
2024/02/13 04:27:48;;;;;;;16.90;7.10;;;4.90;99.90;;;;;;5053265;28;20190;-89
2024/02/13 04:30:14;;;;;;;14.23;7.07;;;4.90;99.90;;;;;;5052653;28;20198;-87
2024/02/13 04:32:41;;;;;;;11.60;6.83;;;4.90;99.90;;;;;;5046007;28;20317;-84
2024/02/13 04:35:08;;;;;;;17.37;8.03;;;4.90;99.90;;;;;;5052751;28;20190;-88
2024/02/13 04:37:35;;;;;;;12.63;7.87;;;4.80;99.90;;;;;;5038852;28;20657;-87
2024/02/13 04:40:01;;;;;;;12.47;7.43;;;4.80;99.90;;;;;;5051586;28;20511;-88
2024/02/13 04:42:34;;;;;;;14.03;7.73;;;4.80;99.90;;;;;;5052204;28;20182;-86
2024/02/13 04:45:01;;;;;;;12.67;7.70;;;4.80;99.90;;;;;;5052758;28;20189;-88
2024/02/13 04:47:28;;;;;;;13.80;7.70;;;4.70;99.90;;;;;;5053974;28;20214;-87
2024/02/13 04:50:07;;;;;;;12.13;7.67;;;4.80;99.90;;;;;;5036372;28;20199;-87
2024/02/13 04:52:34;;;;;;;11.47;7.63;;;4.70;99.90;;;;;;5052554;28;20525;-87
2024/02/13 04:55:00;;;;;;;17.43;8.53;;;4.80;99.90;;;;;;5053441;28;20221;-84
2024/02/13 04:57:27;;;;;;;13.83;7.93;;;4.70;99.90;;;;;;5052522;28;20189;-86
2024/02/13 04:59:56;;;;;;;16.50;8.60;;;4.70;99.90;;;;;;5043634;28;20255;-86
2024/02/13 05:02:24;;;;;;;12.70;8.40;;;4.70;99.90;;;;;;5045471;28;20178;-87
2024/02/13 05:07:36;;;;;;;13.17;8.23;;;4.70;99.90;;;;;;5048369;28;20201;-87
2024/02/13 05:10:02;;;;;;;13.53;8.00;;;4.70;99.90;;;;;;5041837;28;20189;-86
2024/02/13 05:12:28;;;;;;;12.50;8.20;;;4.60;99.90;;;;;;5052014;28;20239;-88
2024/02/13 05:14:54;;;;;;;14.97;8.87;;;4.60;99.90;;;;;;5052422;28;20518;-87
2024/02/13 05:17:23;;;;;;;15.17;8.33;;;4.50;99.90;;;;;;5057186;28;20569;-85
2024/02/13 05:19:50;;;;;;;14.17;8.07;;;4.50;99.90;;;;;;5056126;28;20209;-87
2024/02/13 05:22:16;;;;;;;16.57;9.27;;;4.50;99.90;;;;;;5055809;28;20628;-88
2024/02/13 05:24:46;;;;;;;19.40;8.77;;;4.50;99.90;;;;;;5039472;28;20189;-86
2024/02/13 05:27:13;;;;;;;13.70;8.63;;;4.40;99.90;;;;;;5055552;28;20304;-88
2024/02/13 05:29:41;;;;;;;12.63;8.37;;;4.40;99.90;;;;;;5055246;28;20331;-85
2024/02/13 05:32:07;;;;;;;17.27;8.63;;;4.40;99.90;;;;;;5051086;28;20675;-86
2024/02/13 05:34:34;;;;;;;12.87;8.33;;;4.30;99.90;;;;;;5055560;28;20219;-91
2024/02/13 05:37:01;;;;;;;13.53;8.23;;;4.40;99.90;;;;;;5056936;28;20188;-88
2024/02/13 05:39:28;;;;;;;16.57;8.13;;;4.30;99.90;;;;;;5055588;28;20881;-87
2024/02/13 05:41:54;;;;;;;12.67;7.90;;;4.30;99.90;;;;;;5055057;28;20182;-88
2024/02/13 05:44:21;;;;;;;13.10;7.87;;;4.30;99.90;;;;;;5055357;28;20224;-85
2024/02/13 05:46:48;;;;;;;15.97;7.57;;;4.20;99.90;;;;;;5055366;28;20192;-88
2024/02/13 05:49:14;;;;;;;14.47;7.70;;;4.20;99.90;;;;;;5046924;28;20651;-86
2024/02/13 05:51:40;;;;;;;11.50;7.80;;;4.20;99.90;;;;;;5052714;28;20181;-84
2024/02/13 05:54:06;;;;;;;12.00;6.93;;;4.10;99.90;;;;;;5055217;28;20190;-87
2024/02/13 05:56:32;;;;;;;12.90;6.83;;;4.10;99.90;;;;;;5055821;28;20305;-85
2024/02/13 05:59:00;;;;;;;10.07;6.43;;;4.00;99.90;;;;;;5054730;28;20296;-86
2024/02/13 06:01:27;;;;;;;13.97;6.67;;;4.00;99.90;;;;;;5055794;28;20201;-85
2024/02/13 06:04:01;;;;;;;10.33;6.50;;;4.00;99.90;;;;;;5048695;28;20620;-85
2024/02/13 06:06:27;;;;;;;13.40;6.27;;;4.00;99.90;;;;;;5055115;28;20182;-86
2024/02/13 06:08:54;;;;;;;9.93;6.50;;;4.00;99.90;;;;;;5055411;28;20213;-89
2024/02/13 06:11:27;;;;;;;10.70;5.87;;;3.90;99.90;;;;;;5046920;28;20637;-88
2024/02/13 06:13:53;;;;;;;9.43;5.23;;;3.90;99.90;;;;;;5048305;28;20624;-88
2024/02/13 06:16:19;;;;;;;12.23;5.80;;;3.90;99.90;;;;;;5055117;28;20243;-86
2024/02/13 06:18:47;;;;;;;10.00;5.23;;;3.90;99.90;;;;;;5054444;28;20536;-86
2024/02/13 06:21:18;;;;;;;10.97;5.00;;;3.90;99.90;;;;;;5054384;28;20594;-87
2024/02/13 06:23:45;;;;;;;9.43;5.13;;;3.80;99.90;;;;;;5054804;28;20215;-90
2024/02/13 06:26:11;;;;;;;10.67;5.03;;;3.80;99.90;;;;;;5055412;28;20240;-87
2024/02/13 06:28:37;;;;;;;10.30;4.63;;;3.80;99.90;;;;;;5049811;28;20197;-89
2024/02/13 06:31:09;;;;;;;11.93;5.03;;;3.70;99.90;;;;;;5034448;28;20530;-89
2024/02/13 06:33:35;;;;;;;11.50;4.87;;;3.70;99.90;;;;;;5037572;28;20195;-88
2024/02/13 06:36:01;;;;;;;8.93;4.70;;;3.70;99.90;;;;;;5044710;28;20213;-89
2024/02/13 06:38:28;;;;;;;8.43;5.10;;;3.70;99.90;;;;;;5055729;28;20650;-88
2024/02/13 06:40:57;;;;;;;9.27;4.93;;;3.70;99.90;;;;;;5054748;28;20228;-89
2024/02/13 06:43:25;;;;;;;15.77;5.37;;;3.70;99.90;;;;;;5056344;28;20189;-89
2024/02/13 06:45:51;;;;;;;11.00;5.03;;;3.70;99.90;;;;;;5054921;28;20197;-89
2024/02/13 06:48:17;;;;;;;8.13;4.90;;;3.80;99.90;;;;;;5038740;28;20193;-90
2024/02/13 06:50:44;;;;;;;13.03;4.80;;;3.80;99.90;;;;;;5056128;28;20239;-89
2024/02/13 06:53:09;;;;;;;8.77;4.50;;;3.80;99.90;;;;;;5056074;28;20191;-86
2024/02/13 06:55:35;;;;;;;9.13;4.37;;;3.80;99.90;;;;;;5054657;28;20324;-89
2024/02/13 06:58:01;;;;;;;7.63;4.47;;;3.80;99.90;;;;;;5054806;28;20709;-90
2024/02/13 07:00:30;;;;;;;9.90;4.50;;;3.80;99.90;;;;;;5055938;28;20221;-88
2024/02/13 07:02:57;;;;;;;8.70;4.57;;;3.80;99.90;;;;;;5055894;28;20174;-90
2024/02/13 07:05:23;;;;;;;12.63;4.73;;;3.80;99.90;;;;;;5035716;28;20324;-87
2024/02/13 07:07:49;;;;;;;10.53;5.20;;;3.90;99.90;;;;;;5051961;28;20261;-87
2024/02/13 07:10:15;;;;;;;8.77;4.80;;;3.90;99.90;;;;;;5046628;28;20189;-92
2024/02/13 07:12:41;;;;;;;10.23;5.00;;;3.90;99.90;;;;;;5054521;28;20229;-91
2024/02/13 07:15:08;;;;;;;9.37;4.57;;;4.00;99.90;;;;;;5054689;28;20193;-90
2024/02/13 07:17:33;;;;;;;9.03;4.80;;;3.90;99.90;;;;;;5054997;28;20730;-90
2024/02/13 07:20:01;;;;;;;9.90;5.10;;;3.90;99.90;;;;;;5054927;28;20229;-90
2024/02/13 07:22:26;;;;;;;7.60;4.53;;;3.90;99.90;;;;;;5056091;28;20217;-89
2024/02/13 07:24:52;;;;;;;13.03;5.13;;;3.90;99.90;;;;;;5054464;28;20275;-84
2024/02/13 07:27:18;;;;;;;12.47;5.27;;;3.90;99.90;;;;;;5053619;28;20632;-87
2024/02/13 07:29:45;;;;;;;10.33;5.27;;;3.90;99.90;;;;;;5054824;28;20184;-87
2024/02/13 07:32:11;;;;;;;13.13;5.87;;;3.90;99.90;;;;;;5051100;28;20192;-84
2024/02/13 07:34:38;;;;;;;10.20;5.93;;;3.90;99.90;;;;;;5039920;28;20193;-86
2024/02/13 07:37:08;;;;;;;9.00;5.80;;;3.90;99.90;;;;;;5053405;28;20624;-84
2024/02/13 07:39:35;;;;;;;10.27;5.63;;;4.00;99.90;;;;;;5041552;28;20245;-88
2024/02/13 07:42:01;;;;;;;9.10;5.80;;;4.10;99.90;;;;;;5043843;28;20639;-87
2024/02/13 07:44:29;;;;;;;10.77;6.27;;;4.10;99.90;;;;;;5055149;28;20178;-86
2024/02/13 07:46:57;;;;;;;13.67;6.90;;;4.10;99.90;;;;;;5037111;28;20196;-85
2024/02/13 07:49:23;;;;;;;13.90;7.13;;;4.20;99.90;;;;;;5052763;28;20272;-85
2024/02/13 07:51:51;;;;;;;15.00;6.47;;;4.20;99.90;;;;;;5052203;28;20587;-85
2024/02/13 07:54:21;;;;;;;17.57;7.40;;;4.30;99.90;;;;;;5053257;28;20188;-85
2024/02/13 07:56:52;;;;;;;11.20;7.20;;;4.30;99.90;;;;;;5053729;28;20257;-86
2024/02/13 07:59:18;;;;;;;13.40;7.70;;;4.50;99.90;;;;;;5053213;28;20190;-87
2024/02/13 08:01:44;;;;;;;15.37;8.43;;;4.50;99.90;;;;;;5052965;28;20198;-87
2024/02/13 08:04:10;;;;;;;16.90;7.80;;;4.60;99.90;;;;;;5052832;28;20190;-85
2024/02/13 08:06:37;;;;;;;16.90;8.40;;;4.70;99.90;;;;;;5054186;28;20185;-86
2024/02/13 08:09:06;;;;;;;16.77;8.10;;;4.80;99.90;;;;;;5047594;28;20328;-87
2024/02/13 08:11:33;;;;;;;12.07;7.37;;;5.00;99.90;;;;;;5052714;28;20189;-86
2024/02/13 08:13:59;;;;;;;14.07;7.93;;;5.10;99.90;;;;;;5053121;28;20247;-87
2024/02/13 08:16:24;;;;;;;13.17;6.77;;;5.10;99.90;;;;;;5053270;28;20280;-86
2024/02/13 08:18:50;;;;;;;14.50;7.33;;;5.20;99.90;;;;;;5054502;28;20213;-88
2024/02/13 08:21:18;;;;;;;16.97;7.13;;;5.20;99.90;;;;;;5052720;28;20225;-84
2024/02/13 08:23:44;;;;;;;13.27;6.60;;;5.20;99.90;;;;;;5053014;28;20643;-86
2024/02/13 08:26:10;;;;;;;10.13;7.00;;;5.20;99.90;;;;;;5052607;28;20193;-88
2024/02/13 08:28:37;;;;;;;12.07;6.70;;;5.20;99.90;;;;;;5053085;28;20247;-85
2024/02/13 08:31:06;;;;;;;10.73;6.47;;;5.20;99.90;;;;;;5052943;28;20605;-85
2024/02/13 08:33:31;;;;;;;8.97;6.40;;;5.20;99.90;;;;;;5054238;28;20190;-86
2024/02/13 08:35:57;;;;;;;12.07;6.43;;;5.10;99.90;;;;;;5043131;28;20216;-85
2024/02/13 08:38:23;;;;;;;12.70;5.83;;;5.10;99.90;;;;;;5029650;28;20182;-87
2024/02/13 08:40:49;;;;;;;11.67;5.73;;;5.10;99.90;;;;;;5040589;28;20213;-87
2024/02/13 08:43:16;;;;;;;8.83;6.30;;;5.20;99.90;;;;;;5046871;28;20235;-85
2024/02/13 08:45:42;;;;;;;10.10;5.90;;;5.30;99.90;;;;;;5037251;28;20190;-85
2024/02/13 08:48:07;;;;;;;12.80;6.60;;;5.40;99.90;;;;;;5030863;28;20197;-87
2024/02/13 08:50:33;;;;;;;10.30;6.00;;;5.40;99.90;;;;;;5037492;28;20187;-87
2024/02/13 08:52:59;;;;;;;11.33;6.37;;;5.50;99.90;;;;;;5045906;28;20185;-87
2024/02/13 08:55:28;;;;;;;12.10;6.47;;;5.60;99.90;;;;;;5050552;28;20240;-86
2024/02/13 08:57:54;;;;;;;10.07;6.20;;;5.60;99.90;;;;;;5064864;28;20166;-86
2024/02/13 09:00:20;;;;;;;11.70;6.07;;;5.50;99.90;;;;;;5065475;28;20643;-85
2024/02/13 09:02:52;;;;;;;13.40;6.77;;;5.50;99.90;;;;;;5070956;28;20186;-85
2024/02/13 09:05:18;;;;;;;8.50;5.77;;;5.60;99.90;;;;;;5048063;28;20181;-89
2024/02/13 09:07:44;;;;;;;12.87;5.97;;;5.60;99.90;;;;;;5067306;28;20212;-89
2024/02/13 09:10:12;;;;;;;10.13;5.90;;;5.60;99.90;;;;;;5041490;28;20200;-91
2024/02/13 09:12:39;;;;;;;15.03;6.20;;;5.70;99.90;;;;;;5045315;28;20189;-89
2024/02/13 09:15:11;;;;;;;9.93;5.67;;;5.70;99.90;;;;;;5050623;28;20508;-91
2024/02/13 09:17:46;;;;;;;11.90;5.87;;;5.80;99.90;;;;;;5039299;28;20201;-89
2024/02/13 09:20:14;;;;;;;12.10;6.73;;;5.80;99.90;;;;;;5073720;28;20202;-86
2024/02/13 09:22:45;;;;;;;11.53;6.20;;;5.80;99.90;;;;;;5060547;28;20178;-90
2024/02/13 09:25:16;;;;;;;12.57;6.00;;;5.80;99.90;;;;;;5041317;28;20193;-91
2024/02/13 09:27:48;;;;;;;11.73;5.67;;;5.80;99.90;;;;;;5068498;28;20205;-86
2024/02/13 09:30:16;;;;;;;12.00;5.83;;;5.90;99.90;;;;;;5037413;28;20335;-88
2024/02/13 09:32:43;;;;;;;12.47;5.83;;;5.90;99.90;;;;;;5065188;28;20196;-90
2024/02/13 09:35:10;;;;;;;9.57;5.63;;;5.90;99.90;;;;;;5064344;28;20183;-92
2024/02/13 09:37:40;;;;;;;9.53;6.17;;;5.90;99.90;;;;;;5045264;28;20306;-93
2024/02/13 09:40:14;;;;;;;14.13;6.10;;;5.90;99.90;;;;;;5047341;28;20717;-91
2024/02/13 09:42:49;;;;;;;10.03;5.73;;;5.80;99.90;;;;;;5046603;28;20193;-95
2024/02/13 09:45:16;;;;;;;11.53;6.33;;;5.90;99.90;;;;;;5036411;28;20189;-91
2024/02/13 09:47:42;;;;;;;15.77;5.80;;;5.90;99.90;;;;;;5033847;28;20569;-95
2024/02/13 09:50:12;;;;;;;14.20;6.40;;;5.90;99.90;;;;;;5049136;28;20231;-90
2024/02/13 09:52:57;;;;;;;17.30;6.63;;;5.90;99.90;;;;;;5044381;28;20190;-95
2024/02/13 09:55:23;;;;;;;11.20;5.90;;;5.90;99.90;;;;;;5041700;28;20601;-96
2024/02/13 09:57:50;;;;;;;11.07;6.20;;;6.00;99.90;;;;;;5051014;28;20192;-90
2024/02/13 10:00:17;;;;;;;10.43;6.20;;;6.10;99.90;;;;;;5036835;28;20214;-93
2024/02/13 10:02:47;;;;;;;9.73;6.10;;;6.10;99.90;;;;;;5038633;28;20213;-92
2024/02/13 10:05:13;;;;;;;11.00;6.23;;;6.20;99.90;;;;;;5042139;28;20655;-91
2024/02/13 10:07:40;;;;;;;10.50;6.27;;;6.20;99.90;;;;;;5044966;28;20471;-93
2024/02/13 10:10:13;;;;;;;9.20;5.67;;;6.20;99.90;;;;;;5039022;28;20178;-94
2024/02/13 10:12:59;;;;;;;11.60;6.23;;;6.20;99.90;;;;;;5043371;28;20186;-91
2024/02/13 10:15:39;;;;;;;11.20;6.30;;;6.30;99.90;;;;;;5033076;28;20190;-96
2024/02/13 10:18:11;;;;;;;11.60;6.47;;;6.30;99.90;;;;;;5046267;28;20178;-94
2024/02/13 10:20:39;;;;;;;11.47;5.67;;;6.30;99.90;;;;;;5036409;28;20225;-93
2024/02/13 10:23:05;;;;;;;12.57;5.83;;;6.30;99.90;;;;;;5041209;28;20194;-93
2024/02/13 10:25:32;;;;;;;14.10;5.90;;;6.40;99.90;;;;;;5042089;28;20190;-95
2024/02/13 10:28:02;;;;;;;11.33;6.00;;;6.40;99.90;;;;;;5040268;28;20186;-91
2024/02/13 10:30:29;;;;;;;10.60;6.13;;;6.40;99.90;;;;;;5041673;28;20506;-92
2024/02/13 10:33:11;;;;;;;9.33;5.77;;;6.40;99.90;;;;;;5037277;28;21103;-87
2024/02/13 10:35:39;;;;;;;7.13;4.93;;;6.50;99.90;;;;;;5041201;28;20183;-90
2024/02/13 10:38:07;;;;;;;15.23;5.70;;;6.40;99.90;;;;;;5040864;28;20192;-88
2024/02/13 10:40:39;;;;;;;9.77;6.10;;;6.50;99.90;;;;;;5042397;28;20210;-93
2024/02/13 10:43:12;;;;;;;11.57;5.83;;;6.50;99.90;;;;;;5048091;28;20276;-96
2024/02/13 10:45:38;;;;;;;8.97;5.60;;;6.50;99.90;;;;;;5035585;28;20637;-90
2024/02/13 10:48:12;;;;;;;12.20;5.47;;;6.50;99.90;;;;;;5038892;28;20193;-91
2024/02/13 10:50:40;;;;;;;9.57;5.30;;;6.50;99.90;;;;;;5035321;28;20232;-93
2024/02/13 10:53:07;;;;;;;9.50;5.33;;;6.50;99.90;;;;;;5036098;28;20235;-87
2024/02/13 10:55:34;;;;;;;11.00;5.47;;;6.50;99.90;;;;;;5033399;28;20234;-94
2024/02/13 10:58:01;;;;;;;13.30;5.50;;;6.50;99.90;;;;;;5034602;28;20281;-92
2024/02/13 11:00:28;;;;;;;9.63;5.30;;;6.60;99.90;;;;;;5042473;28;20213;-92
2024/02/13 11:02:55;;;;;;;12.87;5.50;;;6.60;99.90;;;;;;5033841;28;20232;-89
2024/02/13 11:05:27;;;;;;;13.23;6.40;;;6.60;99.90;;;;;;5031641;28;20188;-95
2024/02/13 11:07:54;;;;;;;10.37;5.30;;;6.60;99.90;;;;;;5030611;28;20182;-92
2024/02/13 11:10:29;;;;;;;8.13;4.93;;;6.70;99.90;;;;;;5034946;28;20672;-91
2024/02/13 11:13:01;;;;;;;12.50;5.80;;;6.70;99.90;;;;;;5032867;28;20237;-91
2024/02/13 11:15:30;;;;;;;12.80;5.63;;;6.70;99.90;;;;;;5036797;28;20195;-88
2024/02/13 11:17:57;;;;;;;10.33;5.47;;;6.80;99.90;;;;;;5043602;28;20190;-90
2024/02/13 11:20:30;;;;;;;9.03;4.93;;;6.80;99.90;;;;;;5037595;28;20213;-93
2024/02/13 11:22:59;;;;;;;11.17;5.50;;;6.80;99.90;;;;;;5044772;28;20236;-94
2024/02/13 11:25:26;;;;;;;8.17;4.70;;;6.90;99.90;;;;;;5032302;28;20518;-96
2024/02/13 11:28:03;;;;;;;10.03;5.07;;;6.90;99.90;;;;;;5044576;28;20237;-95
2024/02/13 11:30:29;;;;;;;8.97;5.00;;;7.00;99.90;;;;;;5045375;28;20260;-91
2024/02/13 11:33:01;;;;;;;7.60;4.30;;;7.10;99.90;;;;;;5037848;28;20249;-93
2024/02/13 11:35:32;;;;;;;9.80;4.93;;;7.10;99.90;;;;;;5041587;28;20711;-90
2024/02/13 11:38:09;;;;;;;10.40;4.77;;;7.20;99.90;;;;;;5043503;28;20283;-92
2024/02/13 11:40:40;;;;;;;9.43;4.67;;;7.20;99.90;;;;;;5048759;28;20712;-91
2024/02/13 11:43:19;;;;;;;9.80;4.70;;;7.30;99.90;;;;;;5035088;28;20193;-93
2024/02/13 11:45:45;;;;;;;12.53;5.27;;;7.30;99.90;;;;;;5029898;28;20190;-89
2024/02/13 11:48:15;;;;;;;8.60;3.70;;;7.30;99.90;;;;;;5039174;28;20193;-94
2024/02/13 11:50:41;;;;;;;9.40;4.37;;;7.30;99.90;;;;;;5045686;28;20229;-92
2024/02/13 11:53:07;;;;;;;6.27;4.10;;;7.30;99.90;;;;;;5034160;28;20240;-89
2024/02/13 11:55:33;;;;;;;8.07;4.57;;;7.30;99.90;;;;;;5035518;28;20608;-94
2024/02/13 11:58:00;;;;;;;7.93;4.77;;;7.40;99.90;;;;;;5038587;28;20217;-92
2024/02/13 12:00:27;;;;;;;8.90;4.63;;;7.50;99.90;;;;;;5036993;28;20237;-93
2024/02/13 12:02:57;;;;;;;7.37;4.20;;;7.50;99.90;;;;;;5028934;28;20186;-92
2024/02/13 12:05:28;;;;;;;6.37;4.13;;;7.50;99.90;;;;;;5038502;28;20459;-93
2024/02/13 12:07:54;;;;;;;8.57;4.57;;;7.60;99.90;;;;;;5037855;28;20600;-93
2024/02/13 12:10:21;;;;;;;9.43;4.40;;;7.70;99.90;;;;;;5040733;28;20208;-92
2024/02/13 12:13:00;;;;;;;10.50;4.90;;;7.80;99.90;;;;;;5035817;28;20532;-94
2024/02/13 12:15:27;;;;;;;10.13;4.57;;;7.90;99.90;;;;;;5031590;28;20187;-92
2024/02/13 12:17:57;;;;;;;7.80;4.10;;;7.90;99.90;;;;;;5036123;28;20201;-90
2024/02/13 12:20:28;;;;;;;8.93;4.57;;;8.10;99.90;;;;;;5040786;28;20214;-87
2024/02/13 12:23:06;;;;;;;10.93;4.17;;;7.90;99.90;;;;;;5032589;28;20265;-88
2024/02/13 12:25:35;;;;;;;11.50;4.53;;;7.90;99.90;;;;;;5044105;28;20205;-89
2024/02/13 12:28:05;;;;;;;8.40;4.00;;;7.90;99.90;;;;;;5033923;28;20197;-92
2024/02/13 12:30:34;;;;;;;11.60;4.30;;;7.90;99.90;;;;;;5047382;28;20181;-91
2024/02/13 12:33:07;;;;;;;7.63;3.47;;;7.90;99.90;;;;;;5043649;28;20667;-89
2024/02/13 12:35:35;;;;;;;6.83;3.80;;;7.90;99.90;;;;;;5034862;28;20190;-92
2024/02/13 12:38:12;;;;;;;7.57;3.97;;;8.00;99.90;;;;;;5045745;28;20624;-95
2024/02/13 12:40:42;;;;;;;7.20;4.00;;;8.10;99.90;;;;;;5034570;28;20217;-91
2024/02/13 12:43:09;;;;;;;6.20;3.90;;;8.20;99.90;;;;;;5030338;28;20222;-92
2024/02/13 12:45:41;;;;;;;9.63;3.57;;;8.30;99.90;;;;;;5036842;28;20189;-93
2024/02/13 12:48:09;;;;;;;7.77;4.03;;;8.60;99.90;;;;;;5032790;28;20210;-93
2024/02/13 12:50:36;;;;;;;9.17;3.73;;;8.70;99.90;;;;;;5037741;28;20196;-91
2024/02/13 12:53:03;;;;;;;5.50;3.60;;;8.80;99.90;;;;;;5032739;28;20189;-91
2024/02/13 12:55:30;;;;;;;6.82;4.03;;;8.70;99.90;;;;;;5048454;28;20232;-91